Time;durP1;ratioP1;P1;durP2;ratioP2;P2;SDS_P1;SDS_P2;PMS_P1;PMS_P2;Temp;Humidity;BMP_temperature;BMP_pressure;BME280_temperature;BME280_humidity;BME280_pressure;Samples;Min_cycle;Max_cycle;Signal;HPM_P1;HPM_P2
2024/01/19 00:02:05;;;;;;;1.87;1.43;;;;;;;;;;6334698;28;20031;-82
2024/01/19 00:05:05;;;;;;;1.90;1.50;;;;;;;;;;6329583;28;20027;-81
2024/01/19 00:08:06;;;;;;;1.60;1.40;;;;;;;;;;6334727;28;20042;-81
2024/01/19 00:11:06;;;;;;;2.10;1.50;;;;;;;;;;6340905;28;20031;-82
2024/01/19 00:14:06;;;;;;;1.80;1.37;;;;;;;;;;6323887;28;20107;-81
2024/01/19 00:17:06;;;;;;;2.33;1.50;;;;;;;;;;6317251;28;20019;-81
2024/01/19 00:20:10;;;;;;;1.53;1.40;;;;;;;;;;6327941;28;20034;-81
2024/01/19 00:23:10;;;;;;;1.63;1.20;;;;;;;;;;6337917;28;20473;-81
2024/01/19 00:26:11;;;;;;;2.37;1.30;;;;;;;;;;6334744;28;20023;-81
2024/01/19 00:29:11;;;;;;;1.23;1.13;;;;;;;;;;6341345;28;20121;-81
2024/01/19 00:32:11;;;;;;;1.83;1.40;;;;;;;;;;6326675;28;20023;-81
2024/01/19 00:35:12;;;;;;;2.70;1.47;;;;;;;;;;6334261;28;20379;-82
2024/01/19 00:38:12;;;;;;;1.80;1.50;;;;;;;;;;6330745;28;20055;-81
2024/01/19 00:41:12;;;;;;;3.03;1.40;;;;;;;;;;6340550;28;20019;-81
2024/01/19 00:44:12;;;;;;;1.73;1.60;;;;;;;;;;6322897;28;20055;-81
2024/01/19 00:47:13;;;;;;;1.30;1.20;;;;;;;;;;6311453;28;20032;-82
2024/01/19 00:50:13;;;;;;;2.67;1.73;;;;;;;;;;6314355;28;20027;-81
2024/01/19 00:53:13;;;;;;;2.27;1.60;;;;;;;;;;6332381;28;20012;-83
2024/01/19 00:56:15;;;;;;;2.30;1.70;;;;;;;;;;6334415;28;20016;-82
2024/01/19 00:59:16;;;;;;;2.00;1.70;;;;;;;;;;6316937;28;20054;-82
2024/01/19 01:02:16;;;;;;;1.85;1.55;;;;;;;;;;5959992;28;9999792;-82
2024/01/19 01:05:17;;;;;;;2.73;1.87;;;;;;;;;;6327395;28;20384;-82
2024/01/19 01:08:18;;;;;;;;;;;;;;;;;;6319117;28;20055;-82
2024/01/19 01:11:18;;;;;;;1.23;1.13;;;;;;;;;;6325327;28;19912;-82
2024/01/19 01:14:18;;;;;;;2.40;1.90;;;;;;;;;;6323141;28;20020;-82
2024/01/19 01:17:19;;;;;;;2.37;1.60;;;;;;;;;;6345362;28;20072;-82
2024/01/19 01:20:20;;;;;;;1.73;1.63;;;;;;;;;;6336415;28;20074;-82
2024/01/19 01:23:21;;;;;;;2.20;1.83;;;;;;;;;;6346013;28;20019;-82
2024/01/19 01:26:21;;;;;;;2.80;1.70;;;;;;;;;;6335531;28;20484;-82
2024/01/19 01:29:21;;;;;;;2.27;1.47;;;;;;;;;;6332360;28;20114;-82
2024/01/19 01:32:22;;;;;;;1.83;1.63;;;;;;;;;;6334157;28;20878;-81
2024/01/19 01:35:22;;;;;;;2.27;1.50;;;;;;;;;;6334416;28;20390;-82
2024/01/19 01:38:23;;;;;;;2.80;1.50;;;;;;;;;;6337876;28;20015;-83
2024/01/19 01:41:23;;;;;;;1.87;1.37;;;;;;;;;;6339231;28;20076;-83
2024/01/19 01:44:23;;;;;;;1.77;1.50;;;;;;;;;;6309446;28;20028;-82
2024/01/19 01:47:23;;;;;;;2.23;1.30;;;;;;;;;;6338531;28;20035;-82
2024/01/19 01:50:24;;;;;;;1.30;1.10;;;;;;;;;;6337599;28;20492;-82
2024/01/19 01:53:24;;;;;;;1.50;1.10;;;;;;;;;;6340530;28;20020;-82
2024/01/19 01:56:25;;;;;;;1.60;1.10;;;;;;;;;;6306721;28;20038;-82
2024/01/19 01:59:26;;;;;;;1.25;1.10;;;;;;;;;;6338490;28;20023;-82
2024/01/19 02:02:26;;;;;;;1.57;1.00;;;;;;;;;;6335933;28;20070;-82
2024/01/19 02:05:26;;;;;;;1.00;0.80;;;;;;;;;;6314720;28;20115;-82
2024/01/19 02:08:27;;;;;;;1.00;0.80;;;;;;;;;;6316707;28;20019;-82
2024/01/19 02:11:27;;;;;;;1.00;0.80;;;;;;;;;;6336032;28;20357;-82
2024/01/19 02:14:27;;;;;;;1.77;1.07;;;;;;;;;;6332352;28;20020;-82
2024/01/19 02:17:28;;;;;;;1.10;0.90;;;;;;;;;;6335511;28;20496;-82
2024/01/19 02:20:28;;;;;;;0.97;0.87;;;;;;;;;;6336641;28;20027;-82
2024/01/19 02:23:31;;;;;;;0.93;0.90;;;;;;;;;;6313995;28;20027;-82
2024/01/19 02:26:33;;;;;;;1.00;0.70;;;;;;;;;;6313040;28;20023;-82
2024/01/19 02:29:33;;;;;;;0.98;0.80;;;;;;;;;;6339566;28;20042;-82
2024/01/19 02:32:33;;;;;;;1.20;0.90;;;;;;;;;;6332436;28;20032;-82
2024/01/19 02:35:33;;;;;;;1.80;0.63;;;;;;;;;;6339405;28;20020;-82
2024/01/19 02:38:34;;;;;;;1.63;0.70;;;;;;;;;;6347631;28;20475;-82
2024/01/19 02:41:34;;;;;;;0.97;0.70;;;;;;;;;;6335738;28;20028;-83
2024/01/19 02:44:34;;;;;;;1.40;0.63;;;;;;;;;;6318775;28;20361;-79
2024/01/19 02:47:35;;;;;;;1.73;0.60;;;;;;;;;;6326037;28;20024;-81
2024/01/19 02:50:35;;;;;;;2.03;0.77;;;;;;;;;;6339000;28;20096;-81
2024/01/19 02:53:35;;;;;;;0.80;0.70;;;;;;;;;;6339489;28;20056;-80
2024/01/19 02:56:35;;;;;;;0.93;0.67;;;;;;;;;;6341897;28;20016;-81
2024/01/19 02:59:36;;;;;;;1.07;0.73;;;;;;;;;;6337709;28;20034;-83
2024/01/19 03:02:36;;;;;;;0.93;0.60;;;;;;;;;;6322699;28;20016;-82
2024/01/19 03:05:36;;;;;;;0.93;0.63;;;;;;;;;;6322017;28;20462;-81
2024/01/19 03:08:36;;;;;;;0.83;0.70;;;;;;;;;;6332317;28;20498;-81
2024/01/19 03:11:36;;;;;;;0.83;0.47;;;;;;;;;;6338647;28;20368;-81
2024/01/19 03:14:37;;;;;;;1.33;0.70;;;;;;;;;;6330535;28;20060;-81
2024/01/19 03:17:37;;;;;;;1.03;0.80;;;;;;;;;;6338856;28;20045;-81
2024/01/19 03:20:37;;;;;;;1.00;0.80;;;;;;;;;;6335218;28;20028;-81
2024/01/19 03:23:38;;;;;;;1.90;0.70;;;;;;;;;;6312438;28;20020;-81
2024/01/19 03:26:39;;;;;;;1.50;0.60;;;;;;;;;;6318350;28;20038;-81
2024/01/19 03:29:39;;;;;;;0.65;0.63;;;;;;;;;;6330034;28;20069;-81
2024/01/19 03:32:39;;;;;;;1.67;0.70;;;;;;;;;;6339245;28;20365;-81
2024/01/19 03:35:40;;;;;;;1.10;0.80;;;;;;;;;;6342467;28;20042;-82
2024/01/19 03:38:40;;;;;;;1.50;0.83;;;;;;;;;;6336720;28;20059;-81
2024/01/19 03:41:41;;;;;;;0.90;0.70;;;;;;;;;;6339444;28;20019;-81
2024/01/19 03:44:42;;;;;;;0.90;0.70;;;;;;;;;;6328285;28;20038;-81
2024/01/19 03:47:46;;;;;;;0.82;0.80;;;;;;;;;;6339228;28;20034;-82
2024/01/19 03:50:46;;;;;;;1.10;0.77;;;;;;;;;;6329304;28;20039;-81
2024/01/19 03:53:46;;;;;;;0.90;0.70;;;;;;;;;;6339720;28;20020;-82
2024/01/19 03:56:47;;;;;;;0.80;0.70;;;;;;;;;;6332265;28;20027;-81
2024/01/19 03:59:47;;;;;;;2.30;0.67;;;;;;;;;;6337737;28;20023;-81
2024/01/19 04:02:47;;;;;;;1.10;0.80;;;;;;;;;;6339786;28;20073;-81
2024/01/19 04:05:47;;;;;;;0.70;0.60;;;;;;;;;;6330327;28;20477;-81
2024/01/19 04:08:48;;;;;;;1.10;0.70;;;;;;;;;;6345902;28;20504;-80
2024/01/19 04:11:48;;;;;;;0.90;0.63;;;;;;;;;;6331964;28;20035;-81
2024/01/19 04:14:48;;;;;;;1.20;0.67;;;;;;;;;;6334525;28;20020;-82
2024/01/19 04:17:48;;;;;;;1.00;0.70;;;;;;;;;;6340180;28;20026;-81
2024/01/19 04:20:49;;;;;;;1.20;0.73;;;;;;;;;;6323248;28;20456;-81
2024/01/19 04:23:49;;;;;;;1.00;0.63;;;;;;;;;;6334319;28;20365;-81
2024/01/19 04:26:49;;;;;;;1.13;0.70;;;;;;;;;;6331365;28;20027;-82
2024/01/19 04:29:49;;;;;;;1.00;0.73;;;;;;;;;;6329289;28;20036;-81
2024/01/19 04:32:50;;;;;;;0.87;0.70;;;;;;;;;;6335301;28;20027;-82
2024/01/19 04:35:50;;;;;;;0.77;0.70;;;;;;;;;;6333126;28;20023;-81
2024/01/19 04:38:51;;;;;;;1.17;0.70;;;;;;;;;;6344745;28;20106;-81
2024/01/19 04:41:52;;;;;;;1.15;0.70;;;;;;;;;;6328411;28;20020;-82
2024/01/19 04:44:52;;;;;;;1.33;0.67;;;;;;;;;;6340306;28;20035;-81
2024/01/19 04:47:52;;;;;;;1.27;0.60;;;;;;;;;;6326329;28;20031;-81
2024/01/19 04:50:52;;;;;;;0.80;0.67;;;;;;;;;;6341451;28;20377;-81
2024/01/19 04:53:53;;;;;;;0.63;0.53;;;;;;;;;;6337026;28;20375;-81
2024/01/19 04:56:53;;;;;;;0.90;0.60;;;;;;;;;;6338091;28;20384;-81
2024/01/19 04:59:53;;;;;;;0.87;0.67;;;;;;;;;;6334469;28;20368;-81
2024/01/19 05:02:53;;;;;;;0.90;0.60;;;;;;;;;;6334764;28;20395;-82
2024/01/19 05:05:54;;;;;;;1.40;0.70;;;;;;;;;;6337949;28;20135;-81
2024/01/19 05:08:54;;;;;;;2.77;0.60;;;;;;;;;;6341514;28;20365;-81
2024/01/19 05:11:54;;;;;;;0.77;0.50;;;;;;;;;;6342515;28;20430;-81
2024/01/19 05:14:54;;;;;;;1.37;0.70;;;;;;;;;;6341183;28;20403;-81
2024/01/19 05:17:56;;;;;;;1.00;0.63;;;;;;;;;;6346424;28;20058;-81
2024/01/19 05:20:56;;;;;;;1.10;0.75;;;;;;;;;;6342736;28;20418;-81
2024/01/19 05:23:56;;;;;;;0.97;0.50;;;;;;;;;;6323790;28;20058;-82
2024/01/19 05:26:56;;;;;;;1.13;0.57;;;;;;;;;;6311961;28;20067;-81
2024/01/19 05:29:57;;;;;;;0.60;0.43;;;;;;;;;;6314199;28;20457;-81
2024/01/19 05:32:57;;;;;;;1.83;0.93;;;;;;;;;;6344139;28;20030;-81
2024/01/19 05:35:57;;;;;;;2.00;0.90;;;;;;;;;;6344848;28;20587;-81
2024/01/19 05:38:57;;;;;;;1.23;0.63;;;;;;;;;;6322961;28;20453;-83
2024/01/19 05:41:58;;;;;;;0.37;0.37;;;;;;;;;;6336526;28;20020;-81
2024/01/19 05:44:58;;;;;;;2.50;0.63;;;;;;;;;;6341593;28;20086;-81
2024/01/19 05:47:58;;;;;;;0.83;0.40;;;;;;;;;;6341872;28;20055;-81
2024/01/19 05:50:58;;;;;;;0.40;0.40;;;;;;;;;;6336160;28;20108;-82
2024/01/19 05:53:58;;;;;;;0.60;0.40;;;;;;;;;;6313880;28;20385;-82
2024/01/19 05:56:59;;;;;;;0.70;0.40;;;;;;;;;;6337527;28;20016;-82
2024/01/19 05:59:59;;;;;;;0.70;0.40;;;;;;;;;;6338887;28;20027;-82
2024/01/19 06:02:59;;;;;;;0.80;0.30;;;;;;;;;;6348236;28;20023;-82
2024/01/19 06:06:00;;;;;;;0.63;0.20;;;;;;;;;;6339061;28;20104;-82
2024/01/19 06:09:01;;;;;;;0.80;0.38;;;;;;;;;;6347027;28;20037;-82
2024/01/19 06:12:01;;;;;;;0.37;0.30;;;;;;;;;;6332247;28;20477;-82
2024/01/19 06:15:01;;;;;;;1.03;0.37;;;;;;;;;;6313584;28;20423;-82
2024/01/19 06:18:02;;;;;;;0.33;0.30;;;;;;;;;;6343067;28;20023;-81
2024/01/19 06:21:02;;;;;;;0.57;0.40;;;;;;;;;;6347709;28;20866;-82
2024/01/19 06:24:02;;;;;;;0.53;0.33;;;;;;;;;;6313583;28;20024;-82
2024/01/19 06:27:03;;;;;;;0.40;0.40;;;;;;;;;;6314941;28;20042;-82
2024/01/19 06:30:04;;;;;;;1.25;0.47;;;;;;;;;;6341802;28;20122;-82
2024/01/19 06:33:05;;;;;;;0.82;0.40;;;;;;;;;;6336395;28;20113;-82
2024/01/19 06:36:14;;;;;;;0.97;0.50;;;;;;;;;;6337656;28;20094;-82
2024/01/19 06:39:15;;;;;;;0.95;0.40;;;;;;;;;;6332087;28;20051;-82
2024/01/19 06:42:15;;;;;;;1.43;0.50;;;;;;;;;;6336867;28;20343;-83
2024/01/19 06:45:18;;;;;;;0.50;0.50;;;;;;;;;;6338157;28;20027;-83
2024/01/19 06:48:18;;;;;;;0.65;0.35;;;;;;;;;;6348754;28;20479;-81
2024/01/19 06:51:23;;;;;;;0.53;0.40;;;;;;;;;;6338313;28;20035;-81
2024/01/19 06:54:24;;;;;;;0.65;0.40;;;;;;;;;;6343331;28;20017;-83
2024/01/19 06:57:24;;;;;;;0.67;0.50;;;;;;;;;;6327948;28;20027;-81
2024/01/19 07:00:24;;;;;;;0.57;0.50;;;;;;;;;;6317720;28;20020;-82
2024/01/19 07:03:25;;;;;;;0.47;0.40;;;;;;;;;;6339925;28;20065;-83
2024/01/19 07:06:25;;;;;;;0.70;0.60;;;;;;;;;;6325103;28;20052;-83
2024/01/19 07:09:29;;;;;;;0.40;0.40;;;;;;;;;;6320524;28;20086;-82
2024/01/19 07:12:29;;;;;;;0.90;0.50;;;;;;;;;;6319259;28;20063;-83
2024/01/19 07:15:29;;;;;;;1.57;0.60;;;;;;;;;;6303111;28;20028;-83
2024/01/19 07:18:29;;;;;;;1.83;0.70;;;;;;;;;;6321694;28;20550;-82
2024/01/19 07:21:30;;;;;;;1.23;0.83;;;;;;;;;;6312193;28;20492;-83
2024/01/19 07:24:32;;;;;;;2.07;0.70;;;;;;;;;;6313315;28;20020;-83
2024/01/19 07:27:32;;;;;;;0.68;0.60;;;;;;;;;;6280518;28;20096;-83
2024/01/19 07:30:33;;;;;;;1.37;0.80;;;;;;;;;;6301279;28;20120;-82
2024/01/19 07:33:33;;;;;;;2.00;0.70;;;;;;;;;;6305440;28;20015;-82
2024/01/19 07:36:36;;;;;;;0.93;0.80;;;;;;;;;;6294491;28;20131;-83
2024/01/19 07:39:36;;;;;;;1.45;0.80;;;;;;;;;;6326609;28;20034;-83
2024/01/19 07:42:36;;;;;;;1.63;0.90;;;;;;;;;;6313950;28;20020;-83
2024/01/19 07:45:37;;;;;;;1.07;0.73;;;;;;;;;;6318909;28;20103;-83
2024/01/19 07:48:37;;;;;;;1.10;0.83;;;;;;;;;;6286952;28;20198;-82
2024/01/19 07:51:37;;;;;;;1.10;0.70;;;;;;;;;;6306094;28;20373;-82
2024/01/19 07:54:38;;;;;;;1.20;0.93;;;;;;;;;;6310195;28;20042;-84
2024/01/19 07:57:38;;;;;;;1.10;0.90;;;;;;;;;;6321236;28;20012;-81
2024/01/19 08:00:38;;;;;;;1.23;0.77;;;;;;;;;;6318920;28;20012;-83
2024/01/19 08:03:39;;;;;;;1.00;0.80;;;;;;;;;;6323415;28;20016;-83
2024/01/19 08:06:39;;;;;;;0.80;0.80;;;;;;;;;;6287076;28;20485;-79
2024/01/19 08:09:39;;;;;;;1.60;1.00;;;;;;;;;;6293431;28;20024;-77
2024/01/19 08:12:40;;;;;;;0.90;0.80;;;;;;;;;;6295564;28;20032;-83
2024/01/19 08:15:40;;;;;;;2.07;1.00;;;;;;;;;;6290678;28;20070;-81
2024/01/19 08:18:40;;;;;;;1.77;0.83;;;;;;;;;;6274834;28;20032;-80
2024/01/19 08:21:42;;;;;;;0.97;0.80;;;;;;;;;;6288844;28;20393;-81
2024/01/19 08:24:42;;;;;;;1.33;1.00;;;;;;;;;;6287950;28;20016;-82
2024/01/19 08:27:42;;;;;;;1.67;1.10;;;;;;;;;;6275053;28;20436;-81
2024/01/19 08:30:43;;;;;;;1.57;1.20;;;;;;;;;;6276136;28;20411;-78
2024/01/19 08:33:43;;;;;;;1.00;0.80;;;;;;;;;;6275509;28;20473;-80
2024/01/19 08:36:43;;;;;;;2.27;1.07;;;;;;;;;;6289542;28;20099;-78
2024/01/19 08:39:44;;;;;;;1.73;1.20;;;;;;;;;;6283594;28;20063;-79
2024/01/19 08:42:45;;;;;;;1.65;1.00;;;;;;;;;;6285787;28;20468;-80
2024/01/19 08:45:45;;;;;;;1.10;0.90;;;;;;;;;;6286778;28;20028;-81
2024/01/19 08:48:47;;;;;;;2.03;1.13;;;;;;;;;;6282690;28;21400;-78
2024/01/19 08:51:49;;;;;;;1.88;1.25;;;;;;;;;;6292963;28;20032;-79
2024/01/19 08:54:50;;;;;;;1.83;1.20;;;;;;;;;;6277134;28;20025;-79
2024/01/19 08:57:50;;;;;;;2.50;1.40;;;;;;;;;;6291940;28;20086;-79
2024/01/19 09:00:51;;;;;;;1.30;1.10;;;;;;;;;;6277894;28;20060;-82
2024/01/19 09:03:51;;;;;;;1.70;1.20;;;;;;;;;;6277494;28;20025;-82
2024/01/19 09:06:51;;;;;;;1.73;1.40;;;;;;;;;;6299858;28;20804;-81
2024/01/19 09:09:51;;;;;;;1.80;1.10;;;;;;;;;;6311940;28;20032;-81
2024/01/19 09:12:52;;;;;;;2.67;1.13;;;;;;;;;;6285198;28;20109;-80
2024/01/19 09:15:53;;;;;;;1.97;1.07;;;;;;;;;;6311243;28;20103;-81
2024/01/19 09:18:53;;;;;;;2.17;1.27;;;;;;;;;;6319171;28;20067;-81
2024/01/19 09:21:54;;;;;;;1.33;1.00;;;;;;;;;;6303247;28;20024;-81
2024/01/19 09:24:54;;;;;;;1.50;1.10;;;;;;;;;;6306109;28;20103;-81
2024/01/19 09:27:54;;;;;;;1.50;1.10;;;;;;;;;;6312296;28;20358;-81
2024/01/19 09:30:55;;;;;;;1.47;1.10;;;;;;;;;;6314724;28;20488;-81
2024/01/19 09:41:31;;;;;;;2.00;1.23;;;;;;;;;;6187505;28;20379;-81
2024/01/19 09:44:31;;;;;;;;;;;;;;;;;;6233062;28;20021;-81
2024/01/19 09:47:50;;;;;;;1.63;1.00;;;;;;;;;;6233582;28;20290;-81
2024/01/19 09:50:51;;;;;;;1.58;1.15;;;;;;;;;;6229857;28;20038;-82
2024/01/19 09:53:53;;;;;;;1.85;1.20;;;;;;;;;;6233782;28;20103;-82
2024/01/19 09:56:54;;;;;;;2.25;1.38;;;;;;;;;;6241721;28;20032;-81
2024/01/19 09:59:54;;;;;;;1.53;1.03;;;;;;;;;;6230645;28;20119;-81
2024/01/19 10:02:54;;;;;;;1.90;1.17;;;;;;;;;;6222439;28;20107;-81
2024/01/19 10:05:55;;;;;;;2.03;1.20;;;;;;;;;;6222989;28;20140;-80
2024/01/19 10:08:55;;;;;;;1.70;1.20;;;;;;;;;;5859636;28;10000143;-81
2024/01/19 10:11:56;;;;;;;1.73;1.10;;;;;;;;;;6204498;28;20038;-81
2024/01/19 10:14:56;;;;;;;2.20;1.40;;;;;;;;;;6251712;28;20039;-81
2024/01/19 10:17:56;;;;;;;1.70;1.20;;;;;;;;;;6289456;28;20032;-81
2024/01/19 10:20:57;;;;;;;1.10;1.00;;;;;;;;;;6269051;28;20516;-81
2024/01/19 10:24:07;;;;;;;1.93;1.20;;;;;;;;;;6273582;28;20103;-81
2024/01/19 10:27:07;;;;;;;1.35;1.25;;;;;;;;;;6264805;28;20075;-81
2024/01/19 10:30:12;;;;;;;1.80;1.40;;;;;;;;;;6271565;28;20037;-80
2024/01/19 10:33:12;;;;;;;2.10;1.10;;;;;;;;;;6273393;28;20017;-81
2024/01/19 10:36:12;;;;;;;1.20;0.90;;;;;;;;;;6257333;28;20017;-81
2024/01/19 10:39:17;;;;;;;1.47;1.10;;;;;;;;;;6269348;28;20029;-80
2024/01/19 10:42:17;;;;;;;2.03;1.15;;;;;;;;;;6274908;28;20029;-80
2024/01/19 10:45:21;;;;;;;1.87;1.10;;;;;;;;;;6270812;28;20083;-82
2024/01/19 10:48:25;;;;;;;1.55;1.10;;;;;;;;;;6264670;28;20036;-83
2024/01/19 10:51:29;;;;;;;1.17;1.00;;;;;;;;;;6263863;28;20037;-81
2024/01/19 10:54:30;;;;;;;2.38;1.05;;;;;;;;;;6268068;28;20317;-81
2024/01/19 10:57:30;;;;;;;1.27;1.17;;;;;;;;;;6271772;28;20435;-81
2024/01/19 11:00:30;;;;;;;1.70;1.13;;;;;;;;;;6270418;28;20021;-81
2024/01/19 11:03:31;;;;;;;6.03;2.20;;;;;;;;;;6261855;28;20031;-81
2024/01/19 11:06:33;;;;;;;3.73;1.53;;;;;;;;;;6286412;28;20075;-81
2024/01/19 11:09:34;;;;;;;3.15;1.38;;;;;;;;;;6313654;28;20040;-80
2024/01/19 11:12:37;;;;;;;1.80;1.23;;;;;;;;;;6318359;28;20521;-82
2024/01/19 11:15:53;;;;;;;1.73;1.30;;;;;;;;;;6313157;28;20365;-81
2024/01/19 11:18:54;;;;;;;1.17;0.90;;;;;;;;;;6315246;28;20036;-81
2024/01/19 11:21:54;;;;;;;1.38;0.93;;;;;;;;;;6309411;28;20461;-82
2024/01/19 11:24:56;;;;;;;1.27;1.03;;;;;;;;;;6308100;28;20074;-81
2024/01/19 11:28:01;;;;;;;1.02;0.88;;;;;;;;;;6308604;28;20058;-82
2024/01/19 11:31:22;;;;;;;1.02;0.93;;;;;;;;;;6314053;28;20462;-81
2024/01/19 11:34:40;;;;;;;0.85;0.77;;;;;;;;;;6312629;28;20016;-81
2024/01/19 11:37:45;;;;;;;1.38;1.10;;;;;;;;;;6300087;28;20473;-82
2024/01/19 11:40:48;;;;;;;1.75;0.90;;;;;;;;;;6313480;28;20106;-82
2024/01/19 11:43:49;;;;;;;2.47;1.00;;;;;;;;;;6309949;28;20494;-82
2024/01/19 11:46:52;;;;;;;1.67;0.93;;;;;;;;;;6318827;28;20035;-82
2024/01/19 11:49:52;;;;;;;1.52;1.15;;;;;;;;;;6313663;28;20028;-82
2024/01/19 11:52:54;;;;;;;1.17;1.07;;;;;;;;;;6310935;28;20016;-82
2024/01/19 11:55:54;;;;;;;1.90;1.05;;;;;;;;;;6314194;28;20018;-82
2024/01/19 11:58:55;;;;;;;1.77;1.07;;;;;;;;;;6314935;28;20028;-81
2024/01/19 12:01:55;;;;;;;1.20;0.90;;;;;;;;;;6310593;28;20115;-83
2024/01/19 12:04:57;;;;;;;1.40;0.97;;;;;;;;;;6315335;28;20487;-84
2024/01/19 12:08:00;;;;;;;2.22;1.02;;;;;;;;;;6329384;28;20044;-82
2024/01/19 12:11:01;;;;;;;1.55;1.02;;;;;;;;;;6339259;27;20473;-81
2024/01/19 12:14:04;;;;;;;1.07;0.90;;;;;;;;;;6337515;27;20106;-80
2024/01/19 12:17:05;;;;;;;1.25;0.95;;;;;;;;;;6316852;28;20020;-80
2024/01/19 12:20:09;;;;;;;1.50;1.13;;;;;;;;;;6335451;28;20059;-82
2024/01/19 12:23:09;;;;;;;1.40;1.08;;;;;;;;;;6337569;28;20024;-82
2024/01/19 12:26:09;;;;;;;1.40;1.17;;;;;;;;;;6341238;28;20016;-84
2024/01/19 12:29:10;;;;;;;1.77;1.10;;;;;;;;;;6356053;27;20160;-84
2024/01/19 12:32:11;;;;;;;2.03;1.00;;;;;;;;;;6347798;28;20020;-81
2024/01/19 12:35:15;;;;;;;1.88;0.90;;;;;;;;;;6333183;28;20016;-82
2024/01/19 12:38:15;;;;;;;2.00;0.98;;;;;;;;;;6338213;28;20059;-81
2024/01/19 12:41:16;;;;;;;1.20;0.90;;;;;;;;;;6335643;28;20034;-83
2024/01/19 12:44:16;;;;;;;1.20;0.90;;;;;;;;;;6331949;28;20388;-83
2024/01/19 12:47:17;;;;;;;1.67;1.00;;;;;;;;;;6339883;28;20088;-82
2024/01/19 12:50:18;;;;;;;1.33;0.90;;;;;;;;;;6331897;28;20036;-85
2024/01/19 12:53:18;;;;;;;1.37;1.10;;;;;;;;;;6337313;28;20055;-84
2024/01/19 12:56:31;;;;;;;1.13;1.03;;;;;;;;;;6329822;28;20019;-85
2024/01/19 12:59:31;;;;;;;1.25;0.88;;;;;;;;;;6322578;28;20429;-82
2024/01/19 13:02:32;;;;;;;2.17;1.07;;;;;;;;;;6327067;28;20022;-80
2024/01/19 13:05:32;;;;;;;1.20;1.10;;;;;;;;;;6345276;28;20380;-83
2024/01/19 13:08:33;;;;;;;0.90;0.87;;;;;;;;;;6320913;28;20032;-83
2024/01/19 13:11:33;;;;;;;1.40;0.97;;;;;;;;;;6316783;28;20058;-83
2024/01/19 13:14:34;;;;;;;1.53;1.20;;;;;;;;;;6322544;28;20488;-83
2024/01/19 13:17:34;;;;;;;1.00;0.82;;;;;;;;;;6316997;28;20487;-82
2024/01/19 13:20:35;;;;;;;1.50;1.07;;;;;;;;;;6324516;28;20020;-83
2024/01/19 13:23:35;;;;;;;1.00;0.90;;;;;;;;;;6295657;28;20432;-82
2024/01/19 13:26:35;;;;;;;1.30;1.00;;;;;;;;;;6319982;28;20437;-82
2024/01/19 13:29:36;;;;;;;1.10;0.93;;;;;;;;;;6309687;28;20029;-82
2024/01/19 13:32:37;;;;;;;1.73;1.00;;;;;;;;;;6290952;28;20083;-81
2024/01/19 13:35:37;;;;;;;1.43;0.90;;;;;;;;;;6318306;28;20098;-82
2024/01/19 13:38:38;;;;;;;3.10;1.07;;;;;;;;;;6322850;28;20027;-80
2024/01/19 13:41:38;;;;;;;0.83;0.73;;;;;;;;;;6321858;28;20053;-83
2024/01/19 13:44:38;;;;;;;1.20;0.90;;;;;;;;;;6310301;28;20361;-84
2024/01/19 13:47:39;;;;;;;2.70;0.80;;;;;;;;;;6315204;28;20013;-84
2024/01/19 13:50:39;;;;;;;1.30;0.73;;;;;;;;;;6320242;28;20055;-83
2024/01/19 13:53:39;;;;;;;2.33;1.03;;;;;;;;;;6299524;28;20080;-83
2024/01/19 13:56:40;;;;;;;2.10;1.00;;;;;;;;;;6318465;28;20019;-84
2024/01/19 13:59:40;;;;;;;1.23;1.00;;;;;;;;;;6310912;28;20048;-84
2024/01/19 14:02:40;;;;;;;1.70;0.90;;;;;;;;;;6320898;28;20054;-83
2024/01/19 14:05:41;;;;;;;1.30;0.90;;;;;;;;;;6312194;28;20241;-83
2024/01/19 14:08:46;;;;;;;1.10;0.85;;;;;;;;;;6290404;28;20028;-86
2024/01/19 14:11:47;;;;;;;1.02;0.70;;;;;;;;;;6318389;28;20024;-85
2024/01/19 14:14:47;;;;;;;1.83;0.80;;;;;;;;;;6298023;28;20054;-84
2024/01/19 14:17:48;;;;;;;1.97;1.27;;;;;;;;;;6318532;28;20453;-85
2024/01/19 14:20:49;;;;;;;0.87;0.70;;;;;;;;;;6312053;28;20385;-86
2024/01/19 14:23:49;;;;;;;1.48;0.90;;;;;;;;;;6319111;28;20036;-85
2024/01/19 14:26:49;;;;;;;1.93;1.00;;;;;;;;;;6303939;28;20047;-85
2024/01/19 14:29:50;;;;;;;1.20;0.90;;;;;;;;;;6312154;28;20020;-85
2024/01/19 14:32:52;;;;;;;2.03;1.00;;;;;;;;;;6317769;28;20023;-84
2024/01/19 14:35:53;;;;;;;1.30;0.90;;;;;;;;;;6313148;28;20031;-85
2024/01/19 14:38:54;;;;;;;0.73;0.67;;;;;;;;;;6313584;28;20027;-85
2024/01/19 14:41:54;;;;;;;1.15;0.80;;;;;;;;;;6313270;28;20095;-84
2024/01/19 14:44:55;;;;;;;2.83;1.40;;;;;;;;;;6315175;28;20537;-84
2024/01/19 14:47:55;;;;;;;1.60;1.10;;;;;;;;;;6322818;28;20055;-85
2024/01/19 14:50:56;;;;;;;2.00;0.80;;;;;;;;;;6315020;28;20090;-85
2024/01/19 14:53:56;;;;;;;1.40;0.77;;;;;;;;;;6296576;28;20434;-85
2024/01/19 14:56:57;;;;;;;1.20;0.90;;;;;;;;;;6314635;28;20028;-83
2024/01/19 14:59:58;;;;;;;0.83;0.70;;;;;;;;;;6294269;28;20121;-83
2024/01/19 15:02:59;;;;;;;1.20;0.82;;;;;;;;;;6306438;28;20036;-83
2024/01/19 15:05:59;;;;;;;1.30;0.87;;;;;;;;;;6309610;28;20052;-83
2024/01/19 15:08:59;;;;;;;0.83;0.70;;;;;;;;;;6334405;28;20038;-83
2024/01/19 15:12:00;;;;;;;0.73;0.60;;;;;;;;;;6340886;28;20024;-83
2024/01/19 15:15:00;;;;;;;1.07;0.83;;;;;;;;;;6316229;28;20016;-83
2024/01/19 15:18:01;;;;;;;1.17;0.90;;;;;;;;;;6321599;28;20019;-83
2024/01/19 15:21:01;;;;;;;1.40;1.10;;;;;;;;;;6334497;28;20076;-83
2024/01/19 15:24:04;;;;;;;1.93;1.10;;;;;;;;;;6341353;28;20016;-83
2024/01/19 15:27:04;;;;;;;1.83;1.10;;;;;;;;;;6326711;28;20384;-83
2024/01/19 15:30:05;;;;;;;1.10;1.00;;;;;;;;;;6335625;28;20020;-83
2024/01/19 15:33:05;;;;;;;2.27;0.97;;;;;;;;;;6327725;28;20024;-83
2024/01/19 15:36:10;;;;;;;1.33;0.87;;;;;;;;;;6311219;28;20449;-83
2024/01/19 15:39:11;;;;;;;2.90;1.30;;;;;;;;;;6335261;28;20031;-82
2024/01/19 15:42:11;;;;;;;1.77;1.30;;;;;;;;;;6332151;28;20050;-83
2024/01/19 15:45:11;;;;;;;1.60;1.13;;;;;;;;;;6339061;28;20494;-83
2024/01/19 15:48:11;;;;;;;1.40;1.20;;;;;;;;;;6315808;28;20015;-83
2024/01/19 15:51:19;;;;;;;1.30;1.10;;;;;;;;;;6339158;28;20499;-83
2024/01/19 15:54:19;;;;;;;1.95;1.25;;;;;;;;;;6347123;28;20042;-82
2024/01/19 15:57:20;;;;;;;5.40;2.27;;;;;;;;;;6342031;28;20016;-82
2024/01/19 16:00:20;;;;;;;2.83;2.00;;;;;;;;;;6341117;28;20045;-83
2024/01/19 16:03:20;;;;;;;2.00;1.50;;;;;;;;;;6335599;28;20039;-85
2024/01/19 16:06:21;;;;;;;1.53;1.43;;;;;;;;;;6317220;28;20396;-81
2024/01/19 16:09:21;;;;;;;2.63;1.37;;;;;;;;;;6335250;28;20423;-81
2024/01/19 16:12:22;;;;;;;1.73;1.30;;;;;;;;;;6329298;28;20020;-82
2024/01/19 16:15:22;;;;;;;3.30;1.33;;;;;;;;;;6328217;28;20020;-83
2024/01/19 16:18:23;;;;;;;1.90;1.00;;;;;;;;;;6312285;28;20043;-86
2024/01/19 16:21:24;;;;;;;1.57;1.27;;;;;;;;;;6343833;28;20016;-88
2024/01/19 16:24:24;;;;;;;1.88;1.42;;;;;;;;;;6340876;28;20103;-89
2024/01/19 16:27:25;;;;;;;2.07;1.43;;;;;;;;;;6323661;28;20042;-87
2024/01/19 16:30:25;;;;;;;1.83;1.20;;;;;;;;;;6313053;28;20028;-84
2024/01/19 16:33:26;;;;;;;1.80;1.50;;;;;;;;;;6318759;28;20156;-89
2024/01/19 16:36:26;;;;;;;2.30;1.43;;;;;;;;;;6310696;28;20024;-86
2024/01/19 16:39:27;;;;;;;1.83;1.30;;;;;;;;;;6342200;28;20034;-84
2024/01/19 16:42:27;;;;;;;2.42;1.25;;;;;;;;;;6328522;28;20019;-84
2024/01/19 16:45:27;;;;;;;2.00;1.40;;;;;;;;;;6329990;28;20034;-86
2024/01/19 16:48:28;;;;;;;1.97;1.30;;;;;;;;;;6342151;28;20019;-88
2024/01/19 16:51:28;;;;;;;1.73;1.40;;;;;;;;;;6347858;28;20026;-86
2024/01/19 16:54:32;;;;;;;1.73;1.27;;;;;;;;;;6332299;28;20062;-86
2024/01/19 16:57:32;;;;;;;2.65;1.27;;;;;;;;;;6342092;28;20027;-87
2024/01/19 17:00:33;;;;;;;2.10;1.50;;;;;;;;;;6334704;28;20054;-86
2024/01/19 17:03:33;;;;;;;1.53;1.27;;;;;;;;;;6349852;27;20030;-86
2024/01/19 17:06:34;;;;;;;2.70;1.37;;;;;;;;;;6319363;28;20404;-86
2024/01/19 17:09:34;;;;;;;2.23;1.40;;;;;;;;;;6324412;28;20070;-86
2024/01/19 17:12:34;;;;;;;1.97;1.43;;;;;;;;;;6317437;28;20024;-86
2024/01/19 17:15:34;;;;;;;3.40;1.57;;;;;;;;;;6321107;28;20020;-87
2024/01/19 17:18:35;;;;;;;1.70;1.33;;;;;;;;;;6314856;28;20020;-87
2024/01/19 17:21:38;;;;;;;1.97;1.60;;;;;;;;;;6320372;28;20019;-87
2024/01/19 17:24:39;;;;;;;2.88;1.70;;;;;;;;;;6319104;28;20048;-87
2024/01/19 17:27:39;;;;;;;1.70;1.57;;;;;;;;;;6318151;28;20009;-85
2024/01/19 17:30:45;;;;;;;2.20;1.77;;;;;;;;;;6322508;28;20450;-86
2024/01/19 17:33:45;;;;;;;1.88;1.52;;;;;;;;;;6325903;28;20556;-89
2024/01/19 17:36:46;;;;;;;2.80;1.80;;;;;;;;;;6323340;28;20041;-90
2024/01/19 17:39:46;;;;;;;1.73;1.43;;;;;;;;;;6316929;28;20024;-87
2024/01/19 17:42:46;;;;;;;3.27;2.17;;;;;;;;;;6326553;28;20031;-86
2024/01/19 17:45:46;;;;;;;3.33;2.30;;;;;;;;;;6315719;28;20032;-82
2024/01/19 17:48:47;;;;;;;2.23;1.90;;;;;;;;;;6309204;28;20061;-82
2024/01/19 17:51:49;;;;;;;1.80;1.60;;;;;;;;;;6316045;28;20036;-84
2024/01/19 17:54:49;;;;;;;2.13;1.80;;;;;;;;;;6315146;28;20028;-83
2024/01/19 17:57:50;;;;;;;3.40;1.80;;;;;;;;;;6313306;28;20083;-83
2024/01/19 18:00:52;;;;;;;2.53;1.93;;;;;;;;;;6317539;28;20080;-89
2024/01/19 18:03:52;;;;;;;2.78;1.90;;;;;;;;;;6322790;28;20012;-90
2024/01/19 18:06:52;;;;;;;2.77;1.93;;;;;;;;;;6334820;28;20467;-88
2024/01/19 18:09:52;;;;;;;2.37;1.60;;;;;;;;;;6323307;28;20369;-86
2024/01/19 18:12:53;;;;;;;2.30;1.90;;;;;;;;;;6336589;28;20054;-90